sensor_id;sensor_type;location;lat;lon;timestamp;pressure;altitude;pressure_sealevel;temperature;humidity
35224;BME280;21367;51.930;8.112;2023-01-30T00:05:03;101052.16;;;2.55;100.00
35224;BME280;21367;51.930;8.112;2023-01-30T00:10:09;101057.28;;;2.45;100.00
35224;BME280;21367;51.930;8.112;2023-01-30T00:15:13;101078.53;;;2.57;100.00
35224;BME280;21367;51.930;8.112;2023-01-30T00:20:20;101053.75;;;2.65;100.00
35224;BME280;21367;51.930;8.112;2023-01-30T00:25:24;101045.56;;;2.57;100.00
35224;BME280;21367;51.930;8.112;2023-01-30T00:30:28;101035.47;;;2.69;100.00
35224;BME280;21367;51.930;8.112;2023-01-30T00:35:35;101022.91;;;2.70;100.00
35224;BME280;21367;51.930;8.112;2023-01-30T00:40:39;101005.41;;;2.63;100.00
35224;BME280;21367;51.930;8.112;2023-01-30T00:45:43;100996.22;;;2.75;100.00
35224;BME280;21367;51.930;8.112;2023-01-30T00:51:04;100976.84;;;2.76;100.00
35224;BME280;21367;51.930;8.112;2023-01-30T00:56:08;100967.03;;;2.81;100.00
35224;BME280;21367;51.930;8.112;2023-01-30T01:01:11;100971.31;;;2.82;100.00
35224;BME280;21367;51.930;8.112;2023-01-30T01:06:18;100952.09;;;2.95;100.00
35224;BME280;21367;51.930;8.112;2023-01-30T01:11:22;100943.22;;;2.90;100.00
35224;BME280;21367;51.930;8.112;2023-01-30T01:16:29;100933.25;;;2.82;100.00
35224;BME280;21367;51.930;8.112;2023-01-30T01:21:36;100924.34;;;2.87;100.00
35224;BME280;21367;51.930;8.112;2023-01-30T01:26:40;100907.63;;;3.00;100.00
35224;BME280;21367;51.930;8.112;2023-01-30T01:31:44;100903.88;;;2.95;100.00
35224;BME280;21367;51.930;8.112;2023-01-30T01:36:52;100869.97;;;3.07;100.00
35224;BME280;21367;51.930;8.112;2023-01-30T01:41:56;100884.25;;;3.05;100.00
35224;BME280;21367;51.930;8.112;2023-01-30T01:47:00;100863.06;;;3.16;100.00
35224;BME280;21367;51.930;8.112;2023-01-30T01:52:10;100876.41;;;3.13;100.00
35224;BME280;21367;51.930;8.112;2023-01-30T01:57:19;100880.84;;;3.28;100.00
35224;BME280;21367;51.930;8.112;2023-01-30T02:02:24;100866.03;;;3.22;100.00
35224;BME280;21367;51.930;8.112;2023-01-30T02:07:34;100854.69;;;3.17;100.00
35224;BME280;21367;51.930;8.112;2023-01-30T02:12:41;100834.72;;;3.33;100.00
35224;BME280;21367;51.930;8.112;2023-01-30T02:17:45;100848.72;;;3.28;100.00
35224;BME280;21367;51.930;8.112;2023-01-30T02:28:47;100811.50;;;3.29;100.00
35224;BME280;21367;51.930;8.112;2023-01-30T02:40:10;100789.31;;;3.50;100.00
35224;BME280;21367;51.930;8.112;2023-01-30T02:45:21;100773.84;;;3.46;100.00
35224;BME280;21367;51.930;8.112;2023-01-30T02:50:28;100761.72;;;3.42;100.00
35224;BME280;21367;51.930;8.112;2023-01-30T02:55:39;100754.97;;;3.55;100.00
35224;BME280;21367;51.930;8.112;2023-01-30T03:01:05;100729.75;;;3.58;100.00
35224;BME280;21367;51.930;8.112;2023-01-30T03:06:27;100741.25;;;3.53;100.00
35224;BME280;21367;51.930;8.112;2023-01-30T03:11:45;100738.47;;;3.61;100.00
35224;BME280;21367;51.930;8.112;2023-01-30T03:16:51;100734.41;;;3.52;100.00
35224;BME280;21367;51.930;8.112;2023-01-30T03:21:57;100744.00;;;3.67;100.00
35224;BME280;21367;51.930;8.112;2023-01-30T03:27:06;100730.00;;;3.49;100.00
35224;BME280;21367;51.930;8.112;2023-01-30T03:32:11;100729.28;;;3.63;100.00
35224;BME280;21367;51.930;8.112;2023-01-30T03:37:16;100714.00;;;3.75;100.00
35224;BME280;21367;51.930;8.112;2023-01-30T03:42:24;100691.06;;;3.74;100.00
35224;BME280;21367;51.930;8.112;2023-01-30T03:47:28;100693.22;;;3.81;100.00
35224;BME280;21367;51.930;8.112;2023-01-30T03:52:34;100678.56;;;3.77;100.00
35224;BME280;21367;51.930;8.112;2023-01-30T03:57:45;100671.56;;;3.86;100.00
35224;BME280;21367;51.930;8.112;2023-01-30T04:02:51;100669.97;;;3.88;100.00
35224;BME280;21367;51.930;8.112;2023-01-30T04:07:57;100672.94;;;3.94;100.00
35224;BME280;21367;51.930;8.112;2023-01-30T04:13:04;100657.44;;;4.03;100.00
35224;BME280;21367;51.930;8.112;2023-01-30T04:18:08;100651.00;;;4.08;100.00
35224;BME280;21367;51.930;8.112;2023-01-30T04:23:22;100648.00;;;4.27;100.00
35224;BME280;21367;51.930;8.112;2023-01-30T04:28:29;100652.91;;;4.37;100.00
35224;BME280;21367;51.930;8.112;2023-01-30T04:33:33;100660.81;;;4.28;100.00
35224;BME280;21367;51.930;8.112;2023-01-30T04:38:41;100645.78;;;4.45;100.00
35224;BME280;21367;51.930;8.112;2023-01-30T04:43:47;100655.19;;;4.59;100.00
35224;BME280;21367;51.930;8.112;2023-01-30T04:48:54;100652.78;;;4.74;100.00
35224;BME280;21367;51.930;8.112;2023-01-30T04:53:59;100651.88;;;4.86;100.00
35224;BME280;21367;51.930;8.112;2023-01-30T04:59:07;100637.69;;;4.77;100.00
35224;BME280;21367;51.930;8.112;2023-01-30T05:04:16;100637.28;;;4.84;100.00
35224;BME280;21367;51.930;8.112;2023-01-30T05:09:19;100626.13;;;4.82;100.00
35224;BME280;21367;51.930;8.112;2023-01-30T05:14:26;100626.78;;;4.79;100.00
35224;BME280;21367;51.930;8.112;2023-01-30T05:19:30;100616.31;;;4.88;100.00
35224;BME280;21367;51.930;8.112;2023-01-30T05:24:34;100616.41;;;4.76;100.00
35224;BME280;21367;51.930;8.112;2023-01-30T05:29:40;100627.59;;;4.78;100.00
35224;BME280;21367;51.930;8.112;2023-01-30T05:34:45;100614.84;;;4.92;100.00
35224;BME280;21367;51.930;8.112;2023-01-30T05:39:49;100627.59;;;5.05;100.00
35224;BME280;21367;51.930;8.112;2023-01-30T05:44:55;100629.75;;;4.99;100.00
35224;BME280;21367;51.930;8.112;2023-01-30T05:49:59;100641.09;;;5.04;100.00
35224;BME280;21367;51.930;8.112;2023-01-30T05:55:04;100643.44;;;5.14;100.00
35224;BME280;21367;51.930;8.112;2023-01-30T06:00:13;100656.63;;;5.35;100.00
35224;BME280;21367;51.930;8.112;2023-01-30T06:05:17;100638.00;;;5.23;100.00
35224;BME280;21367;51.930;8.112;2023-01-30T06:10:21;100629.31;;;5.19;100.00
35224;BME280;21367;51.930;8.112;2023-01-30T06:15:28;100627.84;;;5.09;100.00
35224;BME280;21367;51.930;8.112;2023-01-30T06:20:32;100632.72;;;5.33;100.00
35224;BME280;21367;51.930;8.112;2023-01-30T06:25:36;100628.81;;;5.25;100.00
35224;BME280;21367;51.930;8.112;2023-01-30T06:30:44;100647.69;;;5.42;100.00
35224;BME280;21367;51.930;8.112;2023-01-30T06:35:49;100647.47;;;5.39;100.00
35224;BME280;21367;51.930;8.112;2023-01-30T06:40:53;100642.91;;;5.33;100.00
35224;BME280;21367;51.930;8.112;2023-01-30T06:46:00;100650.94;;;5.39;100.00
35224;BME280;21367;51.930;8.112;2023-01-30T06:51:05;100648.97;;;5.35;100.00
35224;BME280;21367;51.930;8.112;2023-01-30T06:56:09;100648.69;;;5.30;100.00
35224;BME280;21367;51.930;8.112;2023-01-30T07:01:15;100626.41;;;5.41;100.00
35224;BME280;21367;51.930;8.112;2023-01-30T07:06:20;100642.19;;;5.36;100.00
35224;BME280;21367;51.930;8.112;2023-01-30T07:11:25;100654.56;;;5.29;100.00
35224;BME280;21367;51.930;8.112;2023-01-30T07:16:31;100661.56;;;5.19;100.00
35224;BME280;21367;51.930;8.112;2023-01-30T07:21:34;100654.09;;;5.22;100.00
35224;BME280;21367;51.930;8.112;2023-01-30T07:26:38;100648.72;;;5.04;100.00
35224;BME280;21367;51.930;8.112;2023-01-30T07:31:45;100664.22;;;4.94;100.00
35224;BME280;21367;51.930;8.112;2023-01-30T07:36:48;100691.22;;;4.92;100.00
35224;BME280;21367;51.930;8.112;2023-01-30T07:41:53;100690.84;;;4.72;100.00
35224;BME280;21367;51.930;8.112;2023-01-30T07:47:01;100685.88;;;4.74;100.00
35224;BME280;21367;51.930;8.112;2023-01-30T07:52:05;100694.19;;;4.84;100.00
35224;BME280;21367;51.930;8.112;2023-01-30T07:57:10;100703.09;;;4.91;100.00
35224;BME280;21367;51.930;8.112;2023-01-30T08:02:18;100709.06;;;4.92;100.00
35224;BME280;21367;51.930;8.112;2023-01-30T08:07:22;100717.31;;;5.14;100.00
35224;BME280;21367;51.930;8.112;2023-01-30T08:12:26;100720.50;;;5.38;100.00
35224;BME280;21367;51.930;8.112;2023-01-30T08:17:33;100723.44;;;5.44;100.00
35224;BME280;21367;51.930;8.112;2023-01-30T08:22:36;100710.47;;;5.54;100.00
35224;BME280;21367;51.930;8.112;2023-01-30T08:27:40;100707.44;;;5.60;100.00
35224;BME280;21367;51.930;8.112;2023-01-30T08:32:46;100713.84;;;5.82;99.70
35224;BME280;21367;51.930;8.112;2023-01-30T08:37:50;100710.25;;;5.78;97.20
35224;BME280;21367;51.930;8.112;2023-01-30T08:42:55;100719.53;;;5.91;95.63
35224;BME280;21367;51.930;8.112;2023-01-30T08:48:04;100713.16;;;5.84;93.28
35224;BME280;21367;51.930;8.112;2023-01-30T08:53:08;100723.09;;;6.08;92.48
35224;BME280;21367;51.930;8.112;2023-01-30T08:58:12;100720.16;;;6.15;91.71
35224;BME280;21367;51.930;8.112;2023-01-30T09:03:18;100717.06;;;6.20;91.05
35224;BME280;21367;51.930;8.112;2023-01-30T09:08:22;100712.53;;;6.01;91.10
35224;BME280;21367;51.930;8.112;2023-01-30T09:13:26;100707.53;;;6.03;91.37
35224;BME280;21367;51.930;8.112;2023-01-30T09:18:33;100713.28;;;6.14;90.76
35224;BME280;21367;51.930;8.112;2023-01-30T09:23:40;100709.69;;;6.25;89.28
35224;BME280;21367;51.930;8.112;2023-01-30T09:28:43;100727.66;;;6.41;88.08
35224;BME280;21367;51.930;8.112;2023-01-30T09:33:50;100720.16;;;6.30;89.35
35224;BME280;21367;51.930;8.112;2023-01-30T09:38:53;100743.59;;;6.37;88.30
35224;BME280;21367;51.930;8.112;2023-01-30T09:44:13;100737.78;;;6.25;87.76
35224;BME280;21367;51.930;8.112;2023-01-30T09:49:33;100751.78;;;6.32;85.99
35224;BME280;21367;51.930;8.112;2023-01-30T09:54:43;100752.09;;;6.23;86.03
35224;BME280;21367;51.930;8.112;2023-01-30T09:59:55;100730.66;;;6.34;86.74
35224;BME280;21367;51.930;8.112;2023-01-30T10:05:03;100754.00;;;6.40;85.86
35224;BME280;21367;51.930;8.112;2023-01-30T10:10:16;100741.97;;;6.53;85.20
35224;BME280;21367;51.930;8.112;2023-01-30T10:15:29;100745.09;;;6.34;85.24
35224;BME280;21367;51.930;8.112;2023-01-30T10:20:44;100725.41;;;6.61;83.37
35224;BME280;21367;51.930;8.112;2023-01-30T10:25:53;100733.72;;;6.86;83.51
35224;BME280;21367;51.930;8.112;2023-01-30T10:31:03;100736.75;;;6.95;81.98
35224;BME280;21367;51.930;8.112;2023-01-30T10:36:13;100742.06;;;6.84;82.55
35224;BME280;21367;51.930;8.112;2023-01-30T10:41:22;100733.25;;;6.79;82.31
35224;BME280;21367;51.930;8.112;2023-01-30T10:46:54;100741.78;;;6.79;81.00
35224;BME280;21367;51.930;8.112;2023-01-30T10:52:11;100742.25;;;6.87;80.75
35224;BME280;21367;51.930;8.112;2023-01-30T10:57:26;100745.75;;;6.89;80.29
35224;BME280;21367;51.930;8.112;2023-01-30T11:02:38;100750.63;;;6.99;80.37
35224;BME280;21367;51.930;8.112;2023-01-30T11:07:47;100738.53;;;7.11;80.02
35224;BME280;21367;51.930;8.112;2023-01-30T11:12:51;100743.88;;;7.01;81.25
35224;BME280;21367;51.930;8.112;2023-01-30T11:18:03;100746.28;;;6.98;80.84
35224;BME280;21367;51.930;8.112;2023-01-30T11:23:22;100724.59;;;6.91;80.83
35224;BME280;21367;51.930;8.112;2023-01-30T11:28:33;100745.94;;;6.77;82.03
35224;BME280;21367;51.930;8.112;2023-01-30T11:33:37;100727.09;;;6.90;81.79
35224;BME280;21367;51.930;8.112;2023-01-30T11:38:55;100733.34;;;6.80;81.73
35224;BME280;21367;51.930;8.112;2023-01-30T11:43:59;100720.31;;;6.90;81.77
35224;BME280;21367;51.930;8.112;2023-01-30T11:49:10;100727.03;;;7.34;79.96
35224;BME280;21367;51.930;8.112;2023-01-30T11:54:20;100730.28;;;7.32;79.24
35224;BME280;21367;51.930;8.112;2023-01-30T11:59:30;100725.69;;;7.26;79.04
35224;BME280;21367;51.930;8.112;2023-01-30T12:04:36;100726.50;;;7.25;78.66
35224;BME280;21367;51.930;8.112;2023-01-30T12:09:43;100726.47;;;7.40;76.89
35224;BME280;21367;51.930;8.112;2023-01-30T12:14:51;100726.38;;;7.38;76.24
35224;BME280;21367;51.930;8.112;2023-01-30T12:20:01;100714.75;;;7.44;75.60
35224;BME280;21367;51.930;8.112;2023-01-30T12:25:18;100735.34;;;7.15;76.45
35224;BME280;21367;51.930;8.112;2023-01-30T12:30:28;100733.31;;;6.95;78.74
35224;BME280;21367;51.930;8.112;2023-01-30T12:35:58;100724.41;;;7.18;78.13
35224;BME280;21367;51.930;8.112;2023-01-30T12:41:18;100719.19;;;7.16;77.00
35224;BME280;21367;51.930;8.112;2023-01-30T12:46:39;100706.28;;;7.30;75.52
35224;BME280;21367;51.930;8.112;2023-01-30T12:52:03;100708.91;;;7.46;74.16
35224;BME280;21367;51.930;8.112;2023-01-30T12:57:19;100743.22;;;7.50;73.73
35224;BME280;21367;51.930;8.112;2023-01-30T13:08:05;100746.97;;;8.04;72.21
35224;BME280;21367;51.930;8.112;2023-01-30T13:13:21;100755.00;;;7.79;73.53
35224;BME280;21367;51.930;8.112;2023-01-30T13:18:31;100771.94;;;7.77;74.34
35224;BME280;21367;51.930;8.112;2023-01-30T13:23:46;100781.56;;;7.50;76.66
35224;BME280;21367;51.930;8.112;2023-01-30T13:28:59;100807.72;;;6.57;84.61
35224;BME280;21367;51.930;8.112;2023-01-30T13:34:06;100850.81;;;5.96;91.70
35224;BME280;21367;51.930;8.112;2023-01-30T13:39:16;100851.97;;;5.34;97.59
35224;BME280;21367;51.930;8.112;2023-01-30T13:44:26;100871.75;;;5.25;96.74
35224;BME280;21367;51.930;8.112;2023-01-30T13:49:38;100901.03;;;4.69;95.96
35224;BME280;21367;51.930;8.112;2023-01-30T13:54:52;100904.97;;;4.03;98.28
35224;BME280;21367;51.930;8.112;2023-01-30T14:00:28;100865.34;;;4.18;97.17
35224;BME280;21367;51.930;8.112;2023-01-30T14:05:58;100866.81;;;5.15;92.96
35224;BME280;21367;51.930;8.112;2023-01-30T14:11:03;100883.53;;;5.23;90.83
35224;BME280;21367;51.930;8.112;2023-01-30T14:16:10;100899.88;;;5.27;90.42
35224;BME280;21367;51.930;8.112;2023-01-30T14:21:17;100922.69;;;5.25;90.92
35224;BME280;21367;51.930;8.112;2023-01-30T14:27:04;100927.16;;;5.41;91.19
35224;BME280;21367;51.930;8.112;2023-01-30T14:32:51;100939.09;;;5.94;90.76
35224;BME280;21367;51.930;8.112;2023-01-30T14:38:10;100939.56;;;6.41;89.78
35224;BME280;21367;51.930;8.112;2023-01-30T14:43:48;100934.78;;;6.74;87.54
35224;BME280;21367;51.930;8.112;2023-01-30T14:48:58;100951.16;;;6.10;90.36
35224;BME280;21367;51.930;8.112;2023-01-30T14:54:08;100944.38;;;6.23;91.64
35224;BME280;21367;51.930;8.112;2023-01-30T14:59:25;100968.03;;;6.08;91.43
35224;BME280;21367;51.930;8.112;2023-01-30T15:04:42;100972.91;;;5.91;91.49
35224;BME280;21367;51.930;8.112;2023-01-30T15:09:51;100989.09;;;5.92;91.51
35224;BME280;21367;51.930;8.112;2023-01-30T15:15:01;101002.28;;;5.98;91.33
35224;BME280;21367;51.930;8.112;2023-01-30T15:20:25;101001.56;;;5.74;91.94
35224;BME280;21367;51.930;8.112;2023-01-30T15:25:40;101016.63;;;5.96;90.99
35224;BME280;21367;51.930;8.112;2023-01-30T15:30:59;101032.34;;;6.02;90.46
35224;BME280;21367;51.930;8.112;2023-01-30T15:36:22;101039.72;;;5.86;90.81
35224;BME280;21367;51.930;8.112;2023-01-30T15:41:29;101050.00;;;5.99;90.40
35224;BME280;21367;51.930;8.112;2023-01-30T15:46:42;101062.47;;;5.83;91.26
35224;BME280;21367;51.930;8.112;2023-01-30T15:51:52;101069.34;;;5.84;90.27
35224;BME280;21367;51.930;8.112;2023-01-30T15:56:58;101082.66;;;5.79;91.36
35224;BME280;21367;51.930;8.112;2023-01-30T16:02:05;101087.34;;;5.73;91.07
35224;BME280;21367;51.930;8.112;2023-01-30T16:07:22;101102.09;;;5.77;91.22
35224;BME280;21367;51.930;8.112;2023-01-30T16:12:27;101100.78;;;5.71;91.32
35224;BME280;21367;51.930;8.112;2023-01-30T16:17:31;101130.03;;;5.76;91.16
35224;BME280;21367;51.930;8.112;2023-01-30T16:22:42;101142.78;;;5.76;90.61
35224;BME280;21367;51.930;8.112;2023-01-30T16:27:48;101151.13;;;5.98;90.02
35224;BME280;21367;51.930;8.112;2023-01-30T16:32:54;101152.59;;;5.95;89.18
35224;BME280;21367;51.930;8.112;2023-01-30T16:38:02;101163.84;;;6.10;88.79
35224;BME280;21367;51.930;8.112;2023-01-30T16:43:16;101174.81;;;5.84;88.44
35224;BME280;21367;51.930;8.112;2023-01-30T16:48:26;101180.59;;;6.07;87.16
35224;BME280;21367;51.930;8.112;2023-01-30T16:53:36;101184.84;;;6.06;87.57
35224;BME280;21367;51.930;8.112;2023-01-30T16:58:50;101194.56;;;6.12;86.42
35224;BME280;21367;51.930;8.112;2023-01-30T17:03:59;101208.25;;;6.00;87.68
35224;BME280;21367;51.930;8.112;2023-01-30T17:09:38;101221.47;;;5.95;86.84
35224;BME280;21367;51.930;8.112;2023-01-30T17:14:47;101218.25;;;5.86;87.24
35224;BME280;21367;51.930;8.112;2023-01-30T17:19:53;101224.72;;;5.80;87.49
35224;BME280;21367;51.930;8.112;2023-01-30T17:25:02;101222.00;;;6.02;86.31
35224;BME280;21367;51.930;8.112;2023-01-30T17:30:12;101234.72;;;5.77;86.97
35224;BME280;21367;51.930;8.112;2023-01-30T17:35:17;101241.94;;;5.71;87.59
35224;BME280;21367;51.930;8.112;2023-01-30T17:40:30;101248.34;;;5.78;87.27
35224;BME280;21367;51.930;8.112;2023-01-30T17:45:35;101262.97;;;5.92;87.03
35224;BME280;21367;51.930;8.112;2023-01-30T17:50:39;101274.78;;;5.92;87.60
35224;BME280;21367;51.930;8.112;2023-01-30T17:55:46;101302.47;;;5.74;89.65
35224;BME280;21367;51.930;8.112;2023-01-30T18:00:51;101314.56;;;5.65;93.73
35224;BME280;21367;51.930;8.112;2023-01-30T18:05:55;101305.69;;;5.48;95.32
35224;BME280;21367;51.930;8.112;2023-01-30T18:11:02;101336.31;;;5.36;97.81
35224;BME280;21367;51.930;8.112;2023-01-30T18:16:14;101307.03;;;5.19;100.00
35224;BME280;21367;51.930;8.112;2023-01-30T18:21:21;101338.09;;;4.92;99.73
35224;BME280;21367;51.930;8.112;2023-01-30T18:26:50;101340.56;;;5.02;100.00
35224;BME280;21367;51.930;8.112;2023-01-30T18:32:03;101337.25;;;5.03;100.00
35224;BME280;21367;51.930;8.112;2023-01-30T18:37:12;101342.91;;;5.22;100.00
35224;BME280;21367;51.930;8.112;2023-01-30T18:42:20;101352.44;;;5.13;100.00
35224;BME280;21367;51.930;8.112;2023-01-30T18:47:25;101352.19;;;5.10;100.00
35224;BME280;21367;51.930;8.112;2023-01-30T18:52:29;101357.97;;;5.19;100.00
35224;BME280;21367;51.930;8.112;2023-01-30T18:57:36;101368.41;;;5.22;100.00
35224;BME280;21367;51.930;8.112;2023-01-30T19:02:41;101364.94;;;5.10;100.00
35224;BME280;21367;51.930;8.112;2023-01-30T19:07:44;101383.50;;;5.31;100.00
35224;BME280;21367;51.930;8.112;2023-01-30T19:12:51;101400.66;;;5.22;99.83
35224;BME280;21367;51.930;8.112;2023-01-30T19:18:07;101396.31;;;5.32;96.55
35224;BME280;21367;51.930;8.112;2023-01-30T19:23:11;101404.34;;;5.37;94.21
35224;BME280;21367;51.930;8.112;2023-01-30T19:28:17;101413.22;;;5.42;93.13
35224;BME280;21367;51.930;8.112;2023-01-30T19:33:21;101418.75;;;5.37;93.02
35224;BME280;21367;51.930;8.112;2023-01-30T19:38:25;101432.34;;;5.25;92.92
35224;BME280;21367;51.930;8.112;2023-01-30T19:43:35;101449.78;;;5.43;92.63
35224;BME280;21367;51.930;8.112;2023-01-30T19:48:40;101454.75;;;5.41;93.07
35224;BME280;21367;51.930;8.112;2023-01-30T19:53:49;101460.50;;;5.39;92.97
35224;BME280;21367;51.930;8.112;2023-01-30T19:58:57;101461.38;;;5.27;93.43
35224;BME280;21367;51.930;8.112;2023-01-30T20:04:03;101468.19;;;5.17;93.35
35224;BME280;21367;51.930;8.112;2023-01-30T20:09:08;101483.81;;;4.87;94.40
35224;BME280;21367;51.930;8.112;2023-01-30T20:14:15;101489.91;;;4.90;93.69
35224;BME280;21367;51.930;8.112;2023-01-30T20:19:18;101492.94;;;4.96;94.28
35224;BME280;21367;51.930;8.112;2023-01-30T20:24:22;101498.28;;;4.99;94.16
35224;BME280;21367;51.930;8.112;2023-01-30T20:29:29;101517.28;;;4.92;94.40
35224;BME280;21367;51.930;8.112;2023-01-30T20:34:34;101523.28;;;4.93;93.17
35224;BME280;21367;51.930;8.112;2023-01-30T20:39:38;101532.56;;;4.92;94.21
35224;BME280;21367;51.930;8.112;2023-01-30T20:44:44;101533.97;;;4.88;95.01
35224;BME280;21367;51.930;8.112;2023-01-30T20:49:48;101539.13;;;4.78;94.72
35224;BME280;21367;51.930;8.112;2023-01-30T20:54:52;101557.28;;;4.93;94.62
35224;BME280;21367;51.930;8.112;2023-01-30T20:59:59;101551.06;;;4.79;94.64
35224;BME280;21367;51.930;8.112;2023-01-30T21:05:06;101550.25;;;4.69;95.19
35224;BME280;21367;51.930;8.112;2023-01-30T21:10:10;101555.53;;;4.82;94.54
35224;BME280;21367;51.930;8.112;2023-01-30T21:15:17;101560.44;;;4.69;95.57
35224;BME280;21367;51.930;8.112;2023-01-30T21:20:21;101566.97;;;4.55;96.21
35224;BME280;21367;51.930;8.112;2023-01-30T21:25:25;101583.00;;;4.54;96.54
35224;BME280;21367;51.930;8.112;2023-01-30T21:30:34;101582.25;;;4.55;96.41
35224;BME280;21367;51.930;8.112;2023-01-30T21:35:37;101594.00;;;4.75;95.78
35224;BME280;21367;51.930;8.112;2023-01-30T21:40:48;101595.53;;;4.73;95.58
35224;BME280;21367;51.930;8.112;2023-01-30T21:46:07;101595.94;;;4.77;94.71
35224;BME280;21367;51.930;8.112;2023-01-30T21:51:11;101609.00;;;4.82;95.14
35224;BME280;21367;51.930;8.112;2023-01-30T21:56:15;101611.16;;;4.87;95.80
35224;BME280;21367;51.930;8.112;2023-01-30T22:01:22;101618.94;;;4.79;98.32
35224;BME280;21367;51.930;8.112;2023-01-30T22:06:26;101618.94;;;4.89;98.20
35224;BME280;21367;51.930;8.112;2023-01-30T22:11:33;101614.19;;;4.61;100.00
35224;BME280;21367;51.930;8.112;2023-01-30T22:16:40;101601.06;;;4.67;98.86
35224;BME280;21367;51.930;8.112;2023-01-30T22:21:45;101601.56;;;4.63;97.98
35224;BME280;21367;51.930;8.112;2023-01-30T22:26:49;101602.03;;;4.69;98.25
35224;BME280;21367;51.930;8.112;2023-01-30T22:31:56;101610.41;;;4.46;99.24
35224;BME280;21367;51.930;8.112;2023-01-30T22:37:01;101598.03;;;4.61;98.89
35224;BME280;21367;51.930;8.112;2023-01-30T22:42:06;101601.50;;;4.51;99.10
35224;BME280;21367;51.930;8.112;2023-01-30T22:47:13;101598.41;;;4.55;97.95
35224;BME280;21367;51.930;8.112;2023-01-30T22:52:16;101591.44;;;4.43;99.55
35224;BME280;21367;51.930;8.112;2023-01-30T22:57:20;101593.19;;;4.64;98.21
35224;BME280;21367;51.930;8.112;2023-01-30T23:02:27;101593.19;;;4.54;98.60
35224;BME280;21367;51.930;8.112;2023-01-30T23:07:30;101591.69;;;4.46;98.62
35224;BME280;21367;51.930;8.112;2023-01-30T23:12:34;101594.91;;;4.33;98.67
35224;BME280;21367;51.930;8.112;2023-01-30T23:17:53;101604.31;;;4.13;99.09
35224;BME280;21367;51.930;8.112;2023-01-30T23:23:10;101599.50;;;4.06;99.61
35224;BME280;21367;51.930;8.112;2023-01-30T23:28:15;101603.97;;;3.99;100.00
35224;BME280;21367;51.930;8.112;2023-01-30T23:33:23;101601.94;;;4.05;100.00
35224;BME280;21367;51.930;8.112;2023-01-30T23:38:26;101608.28;;;4.00;100.00
35224;BME280;21367;51.930;8.112;2023-01-30T23:43:31;101622.78;;;4.21;99.75
35224;BME280;21367;51.930;8.112;2023-01-30T23:48:38;101623.91;;;3.94;100.00
35224;BME280;21367;51.930;8.112;2023-01-30T23:53:43;101629.88;;;3.94;99.54
35224;BME280;21367;51.930;8.112;2023-01-30T23:58:47;101627.47;;;3.76;100.00
